WetterOnline ( https://www.wetteronline.de )

Wetter aktuell Geiselhöring

Aktuelles Wetter: Gottfrieding (350m)

6-stündlich | Neueste Meldungen
Ortszeit Temperatur Wetter
So, 09.05. 14:00 24.2° C wolkenlos
So, 09.05. 8:00 9.6° C wolkenlos
So, 09.05. 2:00 7.3° C wolkenlos
Sa, 08.05. 20:00 13.7° C bedeckt
Sa, 08.05. 14:00 14.1° C wolkig
Sa, 08.05. 8:00 3.3° C leicht bewölkt
Sa, 08.05. 2:00 2.0° C wolkenlos
Fr, 07.05. 20:00 8.3° C fast wolkenlos
Ortszeit Temperatur Wetter
So, 09.05. 15:00 24.6° C leicht bewölkt
So, 09.05. 14:50 24.6° C leicht bewölkt
So, 09.05. 14:40 24.8° C leicht bewölkt
So, 09.05. 14:30 24.3° C fast wolkenlos
So, 09.05. 14:20 24.3° C fast wolkenlos
So, 09.05. 14:10 24.4° C fast wolkenlos
So, 09.05. 14:00 24.2° C wolkenlos
So, 09.05. 13:30 23.1° C wolkenlos
So, 09.05. 13:00 22.1° C wolkenlos
So, 09.05. 12:30 21.4° C wolkenlos
So, 09.05. 12:00 20.2° C leicht bewölkt
So, 09.05. 11:30 19.2° C wolkenlos
Ortszeit Relative Feuchte Sichtweite
So, 09.05. 14:00 38% >70 km
So, 09.05. 8:00 71% 45 km
So, 09.05. 2:00 79% 50 km
Sa, 08.05. 20:00 52% >70 km
Sa, 08.05. 14:00 39% 65 km
Sa, 08.05. 8:00 87% 24 km
Sa, 08.05. 2:00 90% 35 km
Fr, 07.05. 20:00 64% 65 km
Ortszeit Relative Feuchte Sichtweite
So, 09.05. 15:00 36% 65 km
So, 09.05. 14:50 36% -
So, 09.05. 14:40 38% -
So, 09.05. 14:30 39% 55 km
So, 09.05. 14:20 39% -
So, 09.05. 14:10 37% -
So, 09.05. 14:00 38% >70 km
So, 09.05. 13:30 39% >70 km
So, 09.05. 13:00 40% 65 km
So, 09.05. 12:30 46% >70 km
So, 09.05. 12:00 47% >70 km
So, 09.05. 11:30 49% 60 km
Ortszeit Niederschlagsmenge Niederschlagsart
So, 09.05. 14:00 0.0 l/m2 in 6 Std. -
So, 09.05. 8:00 0.0 l/m2 in 12 Std. -
So, 09.05. 2:00 0.0 l/m2 in 6 Std. -
Sa, 08.05. 20:00 0.0 l/m2 in 12 Std. -
Sa, 08.05. 14:00 0.0 l/m2 in 6 Std. -
Sa, 08.05. 8:00 0.0 l/m2 in 12 Std. -
Sa, 08.05. 2:00 0.0 l/m2 in 6 Std. -
Fr, 07.05. 20:00 3 l/m2 in 12 Std. Regen
Ortszeit Niederschlagsmenge Niederschlagsart
So, 09.05. 15:00 0.0 l/m2 in 1 Std. -
So, 09.05. 14:50 keine Meldung -
So, 09.05. 14:40 keine Meldung -
So, 09.05. 14:30 0.0 l/m2 in 1 Std. -
So, 09.05. 14:20 keine Meldung -
So, 09.05. 14:10 keine Meldung -
So, 09.05. 14:00 0.0 l/m2 in 1 Std. -
So, 09.05. 13:30 0.0 l/m2 in 1 Std. -
So, 09.05. 13:00 0.0 l/m2 in 1 Std. -
So, 09.05. 12:30 0.0 l/m2 in 1 Std. -
So, 09.05. 12:00 0.0 l/m2 in 1 Std. -
So, 09.05. 11:30 0.0 l/m2 in 1 Std. -
Ortszeit Stärke Spitze Richtung
km/h Bft. km/h Grad Sektor
So, 09.05. 14:00 14 3 25 100° O
So, 09.05. 8:00 14 3 18 50° NO
So, 09.05. 2:00 11 2 14 40° NO
Sa, 08.05. 20:00 11 2 22 100° O
Sa, 08.05. 14:00 7 2 22 270° W
Sa, 08.05. 8:00 6 1 11 40° NO
Sa, 08.05. 2:00 7 2 22 250° W
Fr, 07.05. 20:00 14 3 65 290° W
Ortszeit Stärke Spitze Richtung
km/h Bft. km/h Grad Sektor
So, 09.05. 15:00 19 3 26 100° O
So, 09.05. 14:50 19 3 - 100° O
So, 09.05. 14:40 18 3 - 110° O
So, 09.05. 14:30 19 3 26 100° O
So, 09.05. 14:20 19 3 - 100° O
So, 09.05. 14:10 19 3 - 100° O
So, 09.05. 14:00 14 3 22 100° O
So, 09.05. 13:30 17 3 22 100° O
So, 09.05. 13:00 15 3 24 90° O
So, 09.05. 12:30 14 3 22 70° O
So, 09.05. 12:00 14 3 22 100° O
So, 09.05. 11:30 11 2 18 90° O
Ortszeit Untergrenze Bedeckung Gattung
total tief tief mittel hoch
So, 09.05. 14:00 - 0/8 0/8 - - -
So, 09.05. 8:00 - 0/8 0/8 - - -
So, 09.05. 2:00 - 0/8 0/8 - - -
Sa, 08.05. 20:00 3300 m 8/8 8/8 - - -
Sa, 08.05. 14:00 4200 m 8/8 8/8 - - -
Sa, 08.05. 8:00 9000 m 5/8 0/8 - - -
Sa, 08.05. 2:00 - 0/8 0/8 - - -
Fr, 07.05. 20:00 1800 m 1/8 1/8 - - -
Ortszeit Bedeckungsgrad in Achtel und Wolkenuntergrenze
So, 09.05. 15:00 3(8700m) 4(10500m)
So, 09.05. 14:50 3(8700m) 4(10500m)
So, 09.05. 14:40 1(9000m) 2(10500m) 3(10500m)
So, 09.05. 14:30 2(10500m) 3(10500m)
So, 09.05. 14:20 2(10500m)
So, 09.05. 14:10 1(10500m)
So, 09.05. 14:00 keine Wolken
So, 09.05. 13:30 keine Wolken
So, 09.05. 13:00 keine Wolken
So, 09.05. 12:30 keine Wolken
So, 09.05. 12:00 5(10500m)
So, 09.05. 11:30 keine Wolken
Ortszeit Luftdruck NN (hPa) Tendenz (hPa in 3 Std.)
So, 09.05. 14:00 1011 - 2,3
So, 09.05. 8:00 1016 + 0,2
So, 09.05. 2:00 1017 - 0,5
Sa, 08.05. 20:00 1016 - 1,2
Sa, 08.05. 14:00 1019 - 1,5
Sa, 08.05. 8:00 1023 + 0,3
Sa, 08.05. 2:00 1023 + 0,5
Fr, 07.05. 20:00 1019 + 2,7
Ortszeit Luftdruck NN (hPa) Tendenz (hPa in 3 Std.)
So, 09.05. 15:00 1010 - 2,6
So, 09.05. 14:50 1010 keine Meldung
So, 09.05. 14:40 1010 keine Meldung
So, 09.05. 14:30 1011 - 2,3
So, 09.05. 14:20 1011 keine Meldung
So, 09.05. 14:10 1011 keine Meldung
So, 09.05. 14:00 1011 - 2,3
So, 09.05. 13:30 1012 - 1,8
So, 09.05. 13:00 1012 - 1,6
So, 09.05. 12:30 1013 - 1,3
So, 09.05. 12:00 1013 - 0,9
So, 09.05. 11:30 1014 - 0,7
Ortszeit Schneehöhe (cm)
So, 09.05. 14:00 0
So, 09.05. 8:00 0
So, 09.05. 2:00 0
Sa, 08.05. 20:00 0
Sa, 08.05. 14:00 0
Sa, 08.05. 8:00 0
Sa, 08.05. 2:00 0
Fr, 07.05. 20:00 0
Ortszeit Schneehöhe (cm)
So, 09.05. 15:00 0
So, 09.05. 14:50 0
So, 09.05. 14:40 0
So, 09.05. 14:30 0
So, 09.05. 14:20 0
So, 09.05. 14:10 0
So, 09.05. 14:00 0
So, 09.05. 13:30 0
So, 09.05. 13:00 0
So, 09.05. 12:30 0
So, 09.05. 12:00 0
So, 09.05. 11:30 0
Link zu dieser Seite / Seite empfehlen

Das Wetter in ...